Cambre, Spain
Current Conditions -  °F | °C
As of 1:30 PM on Monday 24 Nov 2014 (Local Time) from LECO Reporting Station
Few Clouds Few Clouds  
Wind Chill: 57°   Ceiling: Unl
Heat Index: 57°   Visibility: 6mi
Dew Point: 50°   Wind: 10mph
Humidity: 77%   Direction: 20°NNE
Pressure: 30.15"   Gusts: NA
Location:  43.29°N, 8.35°W
Report Text: LECO 241230Z 02009KT 340V070 9999 FEW030 14/10 Q1021 NOSIG
Loading
Personal Weather Stations






























Interactive Weather Map New forecast layout! Learn more

10-Day Weather Forecast

Advertisements
Track Severe Weather on mobile